createdAt,value
2019-03-18T00:02:08.630Z,3.46
2019-03-18T00:04:39.908Z,3.38
2019-03-18T00:07:11.213Z,3.46
2019-03-18T00:09:42.527Z,3.44
2019-03-18T00:12:13.790Z,3.41
2019-03-18T00:14:45.087Z,3.44
2019-03-18T00:17:16.363Z,3.38
2019-03-18T00:19:47.662Z,3.35
2019-03-18T00:22:18.958Z,3.41
2019-03-18T00:24:50.263Z,3.38
2019-03-18T00:27:21.555Z,3.45
2019-03-18T00:29:52.812Z,3.41
2019-03-18T00:32:24.150Z,3.36
2019-03-18T00:34:55.560Z,3.39
2019-03-18T00:37:26.836Z,3.35
2019-03-18T00:39:58.146Z,3.32
2019-03-18T00:42:29.432Z,3.31
2019-03-18T00:45:13.795Z,3.33
2019-03-18T00:47:33.712Z,3.37
2019-03-18T00:50:05.839Z,3.28
2019-03-18T00:52:37.107Z,3.28
2019-03-18T00:55:08.595Z,3.32
2019-03-18T00:57:39.880Z,3.22
2019-03-18T01:00:11.489Z,3.33
2019-03-18T01:02:42.817Z,3.32
2019-03-18T01:05:14.420Z,3.27
2019-03-18T01:07:45.935Z,3.25
2019-03-18T01:10:17.298Z,3.23
2019-03-18T01:12:48.591Z,3.21
2019-03-18T01:15:27.965Z,3.26
2019-03-18T01:17:52.922Z,3.37
2019-03-18T01:20:24.182Z,3.19
2019-03-18T01:22:58.271Z,3.23
2019-03-18T01:25:29.572Z,3.25
2019-03-18T01:28:00.827Z,3.18
2019-03-18T01:30:32.120Z,3.21
2019-03-18T01:33:03.436Z,3.20
2019-03-18T01:35:34.799Z,3.25
2019-03-18T01:38:06.075Z,3.24
2019-03-18T01:40:37.302Z,3.25
2019-03-18T01:43:08.652Z,3.23
2019-03-18T01:45:41.153Z,3.16
2019-03-18T01:48:12.585Z,3.30
2019-03-18T01:50:43.850Z,3.28
2019-03-18T01:53:15.144Z,3.22
2019-03-18T01:55:46.439Z,3.27
2019-03-18T01:58:17.727Z,3.27
2019-03-18T02:00:49.060Z,3.23
2019-03-18T02:03:20.423Z,3.28
2019-03-18T02:05:51.730Z,3.28
2019-03-18T02:08:22.991Z,3.31
2019-03-18T02:10:54.291Z,3.24
2019-03-18T02:13:25.601Z,3.36
2019-03-18T02:15:56.913Z,3.42
2019-03-18T02:18:28.204Z,3.39
2019-03-18T02:20:59.472Z,3.45
2019-03-18T02:23:30.762Z,3.40
2019-03-18T02:26:02.037Z,3.43
2019-03-18T02:28:33.339Z,3.35
2019-03-18T02:31:04.605Z,3.42
2019-03-18T02:33:35.938Z,3.44
2019-03-18T02:36:07.230Z,3.51
2019-03-18T02:38:38.480Z,3.53
2019-03-18T02:41:09.775Z,3.47
2019-03-18T02:43:41.118Z,3.55
2019-03-18T02:46:12.400Z,3.53
2019-03-18T02:48:43.658Z,3.58
2019-03-18T02:51:14.953Z,3.73
2019-03-18T02:53:46.238Z,3.63
2019-03-18T02:56:17.506Z,3.72
2019-03-18T02:58:48.759Z,3.70
2019-03-18T03:01:20.055Z,3.68
2019-03-18T03:03:51.313Z,3.76
2019-03-18T03:06:22.612Z,3.77
2019-03-18T03:08:53.972Z,3.74
2019-03-18T03:11:25.251Z,3.74
2019-03-18T03:13:56.665Z,3.71
2019-03-18T03:16:28.065Z,3.78
2019-03-18T03:18:59.393Z,3.73
2019-03-18T03:21:30.678Z,3.70
2019-03-18T03:24:01.961Z,3.83
2019-03-18T03:26:33.235Z,3.68
2019-03-18T03:29:04.525Z,3.63
2019-03-18T03:31:35.826Z,3.64
2019-03-18T03:34:12.865Z,3.65
2019-03-18T03:36:42.847Z,3.65
2019-03-18T03:39:14.158Z,3.66
2019-03-18T03:41:45.474Z,3.64
2019-03-18T03:44:16.795Z,3.51
2019-03-18T03:46:48.130Z,3.54
2019-03-18T03:49:19.421Z,3.48
2019-03-18T03:51:50.706Z,3.41
2019-03-18T03:54:21.974Z,3.46
2019-03-18T03:56:53.634Z,3.47
2019-03-18T03:59:25.193Z,3.46
2019-03-18T04:01:56.493Z,3.52
2019-03-18T04:04:27.790Z,3.52
2019-03-18T04:06:59.129Z,3.47
2019-03-18T04:09:30.500Z,3.46
2019-03-18T04:12:01.884Z,3.39
2019-03-18T04:14:33.239Z,3.39
2019-03-18T04:17:04.538Z,3.40
2019-03-18T04:19:35.845Z,3.40
2019-03-18T04:22:07.157Z,3.38
2019-03-18T04:24:38.457Z,3.39
2019-03-18T04:27:09.719Z,3.53
2019-03-18T04:29:41.111Z,3.50
2019-03-18T04:32:12.404Z,3.45
2019-03-18T04:34:43.651Z,3.45
2019-03-18T04:37:14.930Z,3.49
2019-03-18T04:39:46.186Z,3.44
2019-03-18T04:42:17.480Z,3.52
2019-03-18T04:44:48.738Z,3.49
2019-03-18T04:47:20.001Z,3.51
2019-03-18T04:49:51.300Z,3.50
2019-03-18T04:52:22.574Z,3.59
2019-03-18T04:54:53.889Z,3.55
2019-03-18T04:57:25.185Z,3.56
2019-03-18T04:59:56.536Z,3.62
2019-03-18T05:02:27.846Z,3.56
2019-03-18T05:04:59.099Z,3.54
2019-03-18T05:07:30.348Z,3.68
2019-03-18T05:10:01.635Z,3.62
2019-03-18T05:12:32.893Z,3.69
2019-03-18T05:15:04.278Z,3.70
2019-03-18T05:17:35.688Z,3.62
2019-03-18T05:20:07.209Z,3.64
2019-03-18T05:22:38.518Z,3.65
2019-03-18T05:25:10.192Z,3.70
2019-03-18T05:27:41.517Z,3.83
2019-03-18T05:30:12.959Z,3.76
2019-03-18T05:32:44.285Z,3.90
2019-03-18T05:35:15.611Z,3.76
2019-03-18T05:37:46.895Z,3.80
2019-03-18T05:40:18.282Z,3.86
2019-03-18T05:42:49.598Z,3.92
2019-03-18T05:45:20.887Z,3.89
2019-03-18T05:47:52.160Z,3.85
2019-03-18T05:50:23.472Z,3.95
2019-03-18T05:52:54.763Z,3.93
2019-03-18T05:55:26.018Z,3.98
2019-03-18T05:57:57.327Z,4.03
2019-03-18T06:00:28.564Z,4.03
2019-03-18T06:02:59.892Z,3.97
2019-03-18T06:05:31.292Z,4.06
2019-03-18T06:08:02.573Z,3.98
2019-03-18T06:10:33.858Z,4.03
2019-03-18T06:13:05.186Z,4.04
2019-03-18T06:15:36.513Z,4.08
2019-03-18T06:18:07.828Z,4.13
2019-03-18T06:20:39.088Z,4.12
2019-03-18T06:23:10.373Z,4.15
2019-03-18T06:25:41.645Z,4.16
2019-03-18T06:28:12.878Z,4.23
2019-03-18T06:30:44.132Z,4.31
2019-03-18T06:33:15.457Z,4.29
2019-03-18T06:35:46.704Z,4.33
2019-03-18T06:38:18.006Z,4.29
2019-03-18T06:40:49.307Z,4.29
2019-03-18T06:43:20.668Z,4.26
2019-03-18T06:45:51.953Z,4.27
2019-03-18T06:48:23.270Z,4.26
2019-03-18T06:50:54.590Z,4.28
2019-03-18T06:53:25.928Z,4.38
2019-03-18T06:55:57.251Z,4.40
2019-03-18T06:58:28.566Z,4.47
2019-03-18T07:00:59.867Z,4.47
2019-03-18T07:03:31.170Z,4.47
2019-03-18T07:06:02.453Z,4.49
2019-03-18T07:08:33.711Z,4.57
2019-03-18T07:11:05.033Z,4.58
2019-03-18T07:13:36.326Z,4.61
2019-03-18T07:16:07.575Z,4.71
2019-03-18T07:18:38.910Z,4.82
2019-03-18T07:21:10.188Z,4.88
2019-03-18T07:23:42.564Z,5.00
2019-03-18T07:26:13.862Z,5.04
2019-03-18T07:28:45.177Z,5.11
2019-03-18T07:31:16.501Z,5.16
2019-03-18T07:33:47.796Z,5.21
2019-03-18T07:36:19.098Z,5.16
2019-03-18T07:38:50.373Z,5.15
2019-03-18T07:41:24.744Z,5.22
2019-03-18T07:43:56.022Z,5.44
2019-03-18T07:46:27.304Z,5.68
2019-03-18T07:48:58.649Z,5.79
2019-03-18T07:51:30.000Z,5.83
2019-03-18T07:54:01.264Z,5.68
2019-03-18T07:56:32.525Z,5.70
2019-03-18T07:59:03.821Z,5.70
2019-03-18T08:01:35.081Z,5.65
2019-03-18T08:04:06.428Z,6.12
2019-03-18T08:06:37.698Z,7.06
2019-03-18T08:09:10.199Z,7.48
2019-03-18T08:11:41.459Z,8.16
2019-03-18T08:14:12.710Z,8.79
2019-03-18T08:16:44.053Z,9.72
2019-03-18T08:19:15.318Z,9.38
2019-03-18T08:21:46.673Z,8.87
2019-03-18T08:24:17.945Z,8.24
2019-03-18T08:26:52.153Z,8.49
2019-03-18T08:29:23.456Z,8.39
2019-03-18T08:31:54.735Z,8.30
2019-03-18T08:34:26.018Z,7.93
2019-03-18T08:36:57.311Z,8.04
2019-03-18T08:39:28.562Z,8.17
2019-03-18T08:41:59.855Z,8.22
2019-03-18T08:44:31.127Z,8.37
2019-03-18T08:47:02.378Z,8.38
2019-03-18T08:49:33.748Z,8.35
2019-03-18T08:52:05.949Z,8.40
2019-03-18T08:54:37.214Z,8.42
2019-03-18T08:57:08.516Z,8.22
2019-03-18T08:59:39.778Z,8.00
2019-03-18T09:02:11.074Z,8.08
2019-03-18T09:04:42.334Z,8.29
2019-03-18T09:07:13.599Z,8.63
2019-03-18T09:09:44.872Z,9.25
2019-03-18T09:12:16.138Z,9.85
2019-03-18T09:14:47.455Z,10.21
2019-03-18T09:17:18.740Z,10.47
2019-03-18T09:19:50.021Z,10.84
2019-03-18T09:22:21.349Z,11.37
2019-03-18T09:24:52.641Z,11.44
2019-03-18T09:27:23.959Z,11.54
2019-03-18T09:29:55.289Z,11.32
2019-03-18T09:32:26.538Z,10.94
2019-03-18T09:34:57.848Z,11.39
2019-03-18T09:37:29.160Z,11.50
2019-03-18T09:40:00.495Z,11.52
2019-03-18T09:42:31.820Z,11.41
2019-03-18T09:45:03.153Z,11.07
2019-03-18T09:47:34.468Z,11.53
2019-03-18T09:50:08.871Z,12.22
2019-03-18T09:52:40.187Z,12.45
2019-03-18T09:55:11.500Z,12.28
2019-03-18T09:57:42.760Z,12.77
2019-03-18T10:00:14.478Z,13.09
2019-03-18T10:02:45.760Z,12.52
2019-03-18T10:05:17.077Z,11.94
2019-03-18T10:07:48.554Z,11.39
2019-03-18T10:10:19.851Z,11.44
2019-03-18T10:12:51.178Z,11.47
2019-03-18T10:15:22.468Z,11.22
2019-03-18T10:17:53.784Z,11.55
2019-03-18T10:20:25.068Z,11.64
2019-03-18T10:22:56.344Z,11.53
2019-03-18T10:25:27.638Z,11.41
2019-03-18T10:27:58.946Z,11.30
2019-03-18T10:30:30.214Z,11.40
2019-03-18T10:33:01.520Z,12.01
2019-03-18T10:35:32.824Z,12.56
2019-03-18T10:38:04.107Z,13.49
2019-03-18T10:40:35.459Z,14.21
2019-03-18T10:43:06.794Z,13.98
2019-03-18T10:45:38.217Z,13.46
2019-03-18T10:48:09.490Z,12.88
2019-03-18T10:50:40.829Z,12.61
2019-03-18T10:53:12.131Z,12.37
2019-03-18T10:55:43.403Z,11.75
2019-03-18T10:58:14.701Z,11.44
2019-03-18T11:00:47.282Z,11.05
2019-03-18T11:03:18.551Z,10.96
2019-03-18T11:05:49.807Z,11.49
2019-03-18T11:08:21.148Z,11.94
2019-03-18T11:10:52.504Z,11.51
2019-03-18T11:13:23.802Z,12.17
2019-03-18T11:15:55.178Z,12.77
2019-03-18T11:18:26.478Z,12.88
2019-03-18T11:20:57.790Z,12.93
2019-03-18T11:23:29.153Z,13.43
2019-03-18T11:26:00.450Z,13.14
2019-03-18T11:28:31.720Z,12.37
2019-03-18T11:31:02.972Z,11.87
2019-03-18T11:33:34.242Z,10.82
2019-03-18T11:36:05.600Z,10.82
2019-03-18T11:38:36.883Z,10.75
2019-03-18T11:41:08.190Z,10.84
2019-03-18T11:43:39.481Z,10.75
2019-03-18T11:46:10.773Z,10.73
2019-03-18T11:48:42.069Z,10.51
2019-03-18T11:51:13.405Z,10.34
2019-03-18T11:53:44.682Z,9.52
2019-03-18T11:56:15.953Z,9.30
2019-03-18T11:58:47.221Z,9.13
2019-03-18T12:01:18.512Z,8.90
2019-03-18T12:03:49.797Z,8.29
2019-03-18T12:06:21.112Z,8.02
2019-03-18T12:08:52.368Z,7.80
2019-03-18T12:11:23.677Z,7.69
2019-03-18T12:13:54.942Z,7.77
2019-03-18T12:16:26.250Z,7.78
2019-03-18T12:18:57.562Z,7.90
2019-03-18T12:21:28.887Z,8.29
2019-03-18T12:24:00.267Z,9.18
2019-03-18T12:26:31.572Z,9.74
2019-03-18T12:29:02.836Z,10.12
2019-03-18T12:31:34.218Z,10.74
2019-03-18T12:34:05.552Z,11.44
2019-03-18T12:36:36.827Z,11.99
2019-03-18T12:39:08.717Z,12.35
2019-03-18T12:41:40.074Z,12.21
2019-03-18T12:44:11.371Z,11.74
2019-03-18T12:46:42.648Z,11.46
2019-03-18T12:49:13.928Z,11.02
2019-03-18T12:51:45.222Z,10.84
2019-03-18T12:54:16.521Z,10.66
2019-03-18T12:56:47.828Z,10.54
2019-03-18T12:59:19.133Z,10.38
2019-03-18T13:01:50.543Z,10.51
2019-03-18T13:04:22.850Z,10.61
2019-03-18T13:06:54.201Z,10.68
2019-03-18T13:09:25.559Z,10.68
2019-03-18T13:11:56.860Z,10.78
2019-03-18T13:14:28.195Z,10.93
2019-03-18T13:16:59.467Z,11.72
2019-03-18T13:19:30.773Z,12.14
2019-03-18T13:22:02.092Z,12.12
2019-03-18T13:24:33.387Z,11.88
2019-03-18T13:27:04.685Z,12.30
2019-03-18T13:29:36.025Z,12.91
2019-03-18T13:32:07.316Z,13.39
2019-03-18T13:34:38.643Z,13.65
2019-03-18T13:37:09.916Z,13.66
2019-03-18T13:39:41.228Z,14.02
2019-03-18T13:42:12.529Z,14.37
2019-03-18T13:44:43.862Z,14.08
2019-03-18T13:47:15.168Z,13.84
2019-03-18T13:49:46.473Z,13.73
2019-03-18T13:52:17.820Z,14.00
2019-03-18T13:54:49.122Z,14.15
2019-03-18T13:57:20.435Z,14.39
2019-03-18T13:59:51.787Z,14.69
2019-03-18T14:02:23.058Z,14.56
2019-03-18T14:04:54.360Z,14.41
2019-03-18T14:07:25.703Z,14.08
2019-03-18T14:09:56.992Z,14.19
2019-03-18T14:12:28.278Z,14.47
2019-03-18T14:14:59.575Z,14.70
2019-03-18T14:17:30.876Z,14.74
2019-03-18T14:20:02.164Z,15.08
2019-03-18T14:22:33.482Z,15.13
2019-03-18T14:25:05.016Z,15.39
2019-03-18T14:27:36.296Z,15.39
2019-03-18T14:30:10.506Z,15.41
2019-03-18T14:32:41.797Z,15.46
2019-03-18T14:35:13.244Z,15.40
2019-03-18T14:37:44.618Z,15.73
2019-03-18T14:40:15.965Z,15.29
2019-03-18T14:42:47.267Z,14.85
2019-03-18T14:45:19.915Z,14.45
2019-03-18T14:47:51.210Z,14.01
2019-03-18T14:50:22.722Z,13.82
2019-03-18T14:52:54.013Z,13.96
2019-03-18T14:55:25.326Z,14.14
2019-03-18T14:57:59.349Z,14.34
2019-03-18T15:00:30.693Z,14.01
2019-03-18T15:03:01.967Z,13.36
2019-03-18T15:05:33.340Z,12.83
2019-03-18T15:08:04.607Z,12.33
2019-03-18T15:10:35.890Z,11.78
2019-03-18T15:13:07.219Z,11.34
2019-03-18T15:15:38.491Z,10.93
2019-03-18T15:18:09.806Z,10.59
2019-03-18T15:20:41.074Z,10.26
2019-03-18T15:23:12.415Z,10.06
2019-03-18T15:25:43.740Z,9.91
2019-03-18T15:28:15.030Z,9.75
2019-03-18T15:30:46.329Z,9.67
2019-03-18T15:33:17.629Z,9.56
2019-03-18T15:35:48.891Z,9.52
2019-03-18T15:38:20.168Z,9.43
2019-03-18T15:40:51.466Z,9.31
2019-03-18T15:43:22.804Z,9.29
2019-03-18T15:45:54.140Z,9.19
2019-03-18T15:48:25.454Z,9.06
2019-03-18T15:50:56.734Z,8.94
2019-03-18T15:53:28.028Z,8.88
2019-03-18T15:55:59.331Z,8.82
2019-03-18T15:58:30.589Z,8.82
2019-03-18T16:01:01.862Z,8.78
2019-03-18T16:03:33.117Z,8.77
2019-03-18T16:06:04.405Z,8.81
2019-03-18T16:08:35.772Z,8.80
2019-03-18T16:11:07.028Z,8.71
2019-03-18T16:13:38.299Z,8.70
2019-03-18T16:16:09.603Z,8.73
2019-03-18T16:18:40.862Z,8.74
2019-03-18T16:21:12.189Z,8.81
2019-03-18T16:23:43.460Z,8.89
2019-03-18T16:26:14.925Z,8.81
2019-03-18T16:28:46.242Z,8.93
2019-03-18T16:31:17.554Z,8.98
2019-03-18T16:33:48.817Z,9.00
2019-03-18T16:36:20.105Z,8.97
2019-03-18T16:38:51.443Z,8.98
2019-03-18T16:41:22.720Z,8.96
2019-03-18T16:43:54.007Z,8.81
2019-03-18T16:46:25.305Z,8.73
2019-03-18T16:48:56.593Z,8.64
2019-03-18T16:51:27.912Z,8.58
2019-03-18T16:53:59.185Z,8.75
2019-03-18T16:56:30.526Z,8.84
2019-03-18T16:59:01.865Z,8.83
2019-03-18T17:01:33.185Z,8.77
2019-03-18T17:04:04.496Z,8.67
2019-03-18T17:06:37.999Z,8.49
2019-03-18T17:09:09.203Z,8.42
2019-03-18T17:11:40.527Z,8.34
2019-03-18T17:14:11.805Z,8.34
2019-03-18T17:16:43.062Z,8.23
2019-03-18T17:19:14.365Z,8.15
2019-03-18T17:21:45.651Z,8.05
2019-03-18T17:24:16.935Z,7.93
2019-03-18T17:26:48.194Z,7.87
2019-03-18T17:29:19.547Z,7.81
2019-03-18T17:31:50.844Z,7.81
2019-03-18T17:34:22.145Z,7.73
2019-03-18T17:36:53.490Z,7.67
2019-03-18T17:39:24.813Z,7.65
2019-03-18T17:41:56.155Z,7.56
2019-03-18T17:44:27.488Z,7.52
2019-03-18T17:46:58.836Z,7.50
2019-03-18T17:49:30.141Z,7.49
2019-03-18T17:52:01.461Z,7.44
2019-03-18T17:54:32.786Z,7.43
2019-03-18T17:57:07.638Z,7.41
2019-03-18T17:59:37.052Z,7.39
2019-03-18T18:02:08.414Z,7.37
2019-03-18T18:04:39.716Z,7.33
2019-03-18T18:07:11.059Z,7.31
2019-03-18T18:09:42.350Z,7.28
2019-03-18T18:12:13.672Z,7.29
2019-03-18T18:14:44.996Z,7.33
2019-03-18T18:17:16.265Z,7.25
2019-03-18T18:19:47.540Z,7.19
2019-03-18T18:22:18.876Z,7.14
2019-03-18T18:24:50.123Z,7.11
2019-03-18T18:27:21.437Z,7.06
2019-03-18T18:29:52.742Z,7.02
2019-03-18T18:32:24.021Z,7.04
2019-03-18T18:34:55.401Z,7.02
2019-03-18T18:37:26.823Z,6.94
2019-03-18T18:39:58.086Z,6.89
2019-03-18T18:42:29.405Z,6.86
2019-03-18T18:45:00.703Z,6.84
2019-03-18T18:47:32.009Z,6.78
2019-03-18T18:50:03.361Z,6.78
2019-03-18T18:52:34.645Z,6.73
2019-03-18T18:55:06.276Z,6.69
2019-03-18T18:57:37.580Z,6.65
2019-03-18T19:00:11.699Z,6.60
2019-03-18T19:02:43.034Z,6.60
2019-03-18T19:05:14.998Z,6.53
2019-03-18T19:07:46.412Z,6.50
2019-03-18T19:10:17.756Z,6.49
2019-03-18T19:12:49.116Z,6.54
2019-03-18T19:15:21.473Z,6.52
2019-03-18T19:17:52.756Z,6.52
2019-03-18T19:20:24.130Z,6.50
2019-03-18T19:22:55.388Z,6.60
2019-03-18T19:25:26.668Z,6.54
2019-03-18T19:27:58.021Z,6.54
2019-03-18T19:30:29.278Z,6.53
2019-03-18T19:33:00.548Z,6.55
2019-03-18T19:35:31.855Z,6.60
2019-03-18T19:38:03.176Z,6.59
2019-03-18T19:40:34.471Z,6.62
2019-03-18T19:43:05.789Z,6.64
2019-03-18T19:45:37.178Z,6.62
2019-03-18T19:48:08.429Z,6.67
2019-03-18T19:50:39.733Z,6.69
2019-03-18T19:53:11.057Z,6.77
2019-03-18T19:55:42.355Z,6.72
2019-03-18T19:58:13.666Z,6.73
2019-03-18T20:00:44.993Z,6.80
2019-03-18T20:03:16.391Z,6.78
2019-03-18T20:05:47.656Z,6.77
2019-03-18T20:08:19.015Z,6.76
2019-03-18T20:10:50.332Z,6.70
2019-03-18T20:13:21.616Z,6.67
2019-03-18T20:15:52.989Z,6.65
2019-03-18T20:18:24.281Z,6.65
2019-03-18T20:20:56.984Z,6.56
2019-03-18T20:23:28.393Z,6.50
2019-03-18T20:25:59.696Z,6.45
2019-03-18T20:28:31.030Z,6.44
2019-03-18T20:31:02.457Z,6.48
2019-03-18T20:33:33.771Z,6.47
2019-03-18T20:36:05.217Z,6.49
2019-03-18T20:38:36.601Z,6.47
2019-03-18T20:41:07.960Z,6.49
2019-03-18T20:43:39.371Z,6.48
2019-03-18T20:46:10.767Z,6.51
2019-03-18T20:48:42.091Z,6.50
2019-03-18T20:51:13.447Z,6.55
2019-03-18T20:53:44.731Z,6.52
2019-03-18T20:56:18.813Z,6.49
2019-03-18T20:58:50.104Z,6.47
2019-03-18T21:01:21.420Z,6.44
2019-03-18T21:03:52.738Z,6.44
2019-03-18T21:06:24.050Z,6.44
2019-03-18T21:08:55.337Z,6.44
2019-03-18T21:11:26.624Z,6.47
2019-03-18T21:13:57.933Z,6.45
2019-03-18T21:16:29.223Z,6.42
2019-03-18T21:19:00.525Z,6.43
2019-03-18T21:21:31.797Z,6.42
2019-03-18T21:24:03.077Z,6.40
2019-03-18T21:26:34.504Z,6.43
2019-03-18T21:29:05.869Z,6.45
2019-03-18T21:31:37.182Z,6.46
2019-03-18T21:34:08.495Z,6.47
2019-03-18T21:36:39.783Z,6.47
2019-03-18T21:39:11.862Z,6.44
2019-03-18T21:41:43.211Z,6.41
2019-03-18T21:44:14.459Z,6.37
2019-03-18T21:46:45.787Z,6.33
2019-03-18T21:49:17.966Z,6.26
2019-03-18T21:51:49.270Z,6.23
2019-03-18T21:54:20.570Z,6.17
2019-03-18T21:56:51.861Z,6.11
2019-03-18T21:59:23.174Z,6.03
2019-03-18T22:01:54.455Z,5.95
2019-03-18T22:04:25.803Z,5.87
2019-03-18T22:06:57.153Z,5.81
2019-03-18T22:09:28.462Z,5.76
2019-03-18T22:11:59.812Z,5.71
2019-03-18T22:14:31.137Z,5.68
2019-03-18T22:17:02.423Z,5.62
2019-03-18T22:19:33.720Z,5.59
2019-03-18T22:22:05.052Z,5.53
2019-03-18T22:24:44.739Z,5.48
2019-03-18T22:27:09.297Z,5.45
2019-03-18T22:29:40.595Z,5.39
2019-03-18T22:32:11.897Z,5.41
2019-03-18T22:34:43.268Z,5.46
2019-03-18T22:37:14.583Z,5.31
2019-03-18T22:39:45.887Z,5.22
2019-03-18T22:42:17.232Z,5.17
2019-03-18T22:44:48.708Z,5.11
2019-03-18T22:47:19.974Z,5.09
2019-03-18T22:49:51.280Z,5.03
2019-03-18T22:52:22.581Z,4.99
2019-03-18T22:54:56.124Z,4.95
2019-03-18T22:57:26.889Z,4.91
2019-03-18T22:59:58.126Z,4.89
2019-03-18T23:02:29.452Z,4.86
2019-03-18T23:05:00.723Z,4.84
2019-03-18T23:07:32.043Z,4.82
2019-03-18T23:10:03.728Z,4.78
2019-03-18T23:12:35.014Z,4.80
2019-03-18T23:15:06.424Z,4.78
2019-03-18T23:17:37.738Z,4.80
2019-03-18T23:20:09.153Z,4.80
2019-03-18T23:22:40.451Z,4.82
2019-03-18T23:25:11.910Z,4.80
2019-03-18T23:27:43.174Z,4.82
2019-03-18T23:30:14.507Z,4.80
2019-03-18T23:32:45.787Z,4.80
2019-03-18T23:35:17.075Z,4.75
2019-03-18T23:37:48.416Z,4.69
2019-03-18T23:40:19.706Z,4.70
2019-03-18T23:42:51.008Z,4.66
2019-03-18T23:45:22.303Z,4.61
2019-03-18T23:47:53.763Z,4.56
2019-03-18T23:50:25.078Z,4.53
2019-03-18T23:52:56.387Z,4.47
2019-03-18T23:55:27.701Z,4.42
2019-03-18T23:57:58.988Z,4.36
